Time;durP1;ratioP1;P1;durP2;ratioP2;P2;SDS_P1;SDS_P2;PMS_P1;PMS_P2;Temp;Humidity;BMP_temperature;BMP_pressure;BME280_temperature;BME280_humidity;BME280_pressure;Samples;Min_cycle;Max_cycle;Signal;HPM_P1;HPM_P2
2023/01/29 00:01:02;;;;;;;0.62;0.62;;;0.30;99.90;;;;;;4408610;32;20085;-60
2023/01/29 00:03:28;;;;;;;0.40;0.40;;;0.20;99.90;;;;;;4423923;32;20112;-61
2023/01/29 00:05:53;;;;;;;0.45;0.45;;;0.30;99.90;;;;;;4425318;32;20172;-61
2023/01/29 00:08:19;;;;;;;0.50;0.50;;;0.30;99.90;;;;;;4422511;32;20086;-61
2023/01/29 00:10:44;;;;;;;0.40;0.40;;;0.20;99.90;;;;;;4424987;32;20084;-62
2023/01/29 00:13:10;;;;;;;0.75;0.75;;;0.20;99.90;;;;;;4423539;32;20595;-58
2023/01/29 00:15:35;;;;;;;0.40;0.40;;;0.20;99.90;;;;;;4425214;32;20140;-60
2023/01/29 00:18:00;;;;;;;0.50;0.50;;;0.40;99.90;;;;;;4425166;32;20131;-59
2023/01/29 00:20:26;;;;;;;0.50;0.50;;;0.40;99.90;;;;;;4424578;32;20148;-58
2023/01/29 00:22:52;;;;;;;0.50;0.50;;;0.50;99.90;;;;;;4419279;32;20540;-59
2023/01/29 00:25:17;;;;;;;0.50;0.50;;;0.40;99.90;;;;;;4425275;32;20118;-59
2023/01/29 00:27:43;;;;;;;0.50;0.50;;;0.30;99.90;;;;;;4422789;32;20073;-60
2023/01/29 00:30:11;;;;;;;0.50;0.50;;;0.30;99.90;;;;;;4422918;32;20084;-60
2023/01/29 00:32:38;;;;;;;0.77;0.77;;;0.40;99.90;;;;;;4409064;32;20326;-61
2023/01/29 00:35:05;;;;;;;5.93;1.58;;;0.40;99.90;;;;;;4423776;32;20120;-62
2023/01/29 00:37:30;;;;;;;0.43;0.43;;;0.40;99.90;;;;;;4409321;32;20066;-59
2023/01/29 00:39:56;;;;;;;6.70;1.25;;;0.50;99.90;;;;;;4424232;32;20069;-63
2023/01/29 00:45:07;;;;;;;0.40;0.40;;;0.50;99.90;;;;;;4411509;32;20081;-63
2023/01/29 00:47:33;;;;;;;0.40;0.40;;;0.40;99.90;;;;;;4426580;32;20298;-61
2023/01/29 00:50:00;;;;;;;0.70;0.70;;;0.40;99.90;;;;;;4423385;32;20077;-62
2023/01/29 00:52:26;;;;;;;0.50;0.50;;;0.50;99.90;;;;;;4409734;32;20519;-61
2023/01/29 00:54:54;;;;;;;2.47;1.42;;;0.50;99.90;;;;;;4410877;32;20065;-62
2023/01/29 00:57:20;;;;;;;0.50;0.50;;;0.50;99.90;;;;;;4411229;32;20097;-61
2023/01/29 00:59:45;;;;;;;0.93;0.93;;;0.50;99.90;;;;;;4423528;32;20564;-61
2023/01/29 01:03:11;;;;;;;0.52;0.52;;;0.50;99.90;;;;;;4423899;32;20081;-62
2023/01/29 01:04:56;;;;;;;0.60;0.60;;;0.50;99.90;;;;;;4400735;32;20532;-60
2023/01/29 01:07:22;;;;;;;0.50;0.50;;;0.50;99.90;;;;;;4409222;32;20077;-59
2023/01/29 01:10:48;;;;;;;0.80;0.80;;;0.60;99.90;;;;;;4410224;32;20555;-61
2023/01/29 01:12:33;;;;;;;1.75;1.17;;;0.50;99.90;;;;;;4410643;32;20143;-63
2023/01/29 01:14:58;;;;;;;0.80;0.80;;;0.50;99.90;;;;;;4421784;32;20069;-57
2023/01/29 01:17:24;;;;;;;0.55;0.55;;;0.50;99.90;;;;;;4424271;32;20558;-61
2023/01/29 01:19:49;;;;;;;5.65;1.83;;;0.50;99.90;;;;;;4408842;32;20074;-62
2023/01/29 01:22:15;;;;;;;0.40;0.40;;;0.50;99.90;;;;;;4424504;32;20081;-62
2023/01/29 01:24:41;;;;;;;1.50;0.52;;;0.50;99.90;;;;;;4425168;32;20571;-62
2023/01/29 01:27:06;;;;;;;0.50;0.50;;;0.60;99.90;;;;;;4423960;32;20422;-62
2023/01/29 01:29:32;;;;;;;0.95;0.95;;;0.60;99.90;;;;;;4423511;32;20060;-61
2023/01/29 01:31:58;;;;;;;1.05;1.02;;;0.70;99.90;;;;;;4424035;32;20116;-61
2023/01/29 01:34:25;;;;;;;0.60;0.60;;;0.70;99.90;;;;;;4421968;32;20086;-59
2023/01/29 01:36:52;;;;;;;0.40;0.40;;;0.70;99.90;;;;;;4409675;32;20097;-59
2023/01/29 01:39:17;;;;;;;0.60;0.60;;;0.70;99.90;;;;;;4410375;32;20072;-60
2023/01/29 01:41:43;;;;;;;0.40;0.40;;;0.60;99.90;;;;;;4422750;32;20092;-61
2023/01/29 01:44:48;;;;;;;0.50;0.50;;;0.60;99.90;;;;;;4409997;32;20837;-60
2023/01/29 01:47:15;;;;;;;1.08;0.80;;;0.60;99.90;;;;;;4411884;32;20569;-60
2023/01/29 01:49:41;;;;;;;0.60;0.60;;;0.60;99.90;;;;;;4409114;32;20072;-61
2023/01/29 01:52:07;;;;;;;0.50;0.50;;;0.60;99.90;;;;;;4422513;32;20097;-60
2023/01/29 01:54:33;;;;;;;0.60;0.60;;;0.60;99.90;;;;;;4424780;32;20132;-60
2023/01/29 01:57:08;;;;;;;0.80;0.60;;;0.60;99.90;;;;;;4423206;32;20065;-60
2023/01/29 01:59:36;;;;;;;0.50;0.50;;;0.70;99.90;;;;;;4408683;32;20065;-59
2023/01/29 02:09:35;;;;;;;0.55;0.55;;;0.60;99.90;;;;;;4410677;32;20127;-59
2023/01/29 02:10:21;;;;;;;0.60;0.60;;;0.70;99.90;;;;;;4409293;32;20069;-61
2023/01/29 02:12:46;;;;;;;0.50;0.50;;;0.70;99.90;;;;;;4422713;32;20093;-61
2023/01/29 02:15:12;;;;;;;0.40;0.40;;;0.70;99.90;;;;;;4409493;32;20077;-61
2023/01/29 02:17:38;;;;;;;0.65;0.65;;;0.70;99.90;;;;;;4409818;32;20068;-61
2023/01/29 02:20:17;;;;;;;0.70;0.70;;;0.60;99.90;;;;;;4422755;32;20073;-60
2023/01/29 02:23:04;;;;;;;0.93;0.90;;;0.60;99.90;;;;;;4408640;32;20076;-58
2023/01/29 02:26:09;;;;;;;0.50;0.50;;;0.70;99.90;;;;;;4412570;32;20172;-60
2023/01/29 02:28:48;;;;;;;0.50;0.50;;;0.60;99.90;;;;;;4412497;32;20093;-61
2023/01/29 02:31:43;;;;;;;0.55;0.55;;;0.70;99.90;;;;;;4409812;32;20148;-60
2023/01/29 02:34:15;;;;;;;0.47;0.47;;;0.80;99.90;;;;;;4423426;32;20094;-60
2023/01/29 02:36:47;;;;;;;0.40;0.40;;;0.80;99.90;;;;;;4423173;32;20090;-60
2023/01/29 02:39:26;;;;;;;0.68;0.68;;;0.80;99.90;;;;;;4421793;32;20081;-59
2023/01/29 02:42:01;;;;;;;0.45;0.45;;;0.80;99.90;;;;;;4423113;32;20465;-60
2023/01/29 02:44:36;;;;;;;0.50;0.50;;;0.80;99.90;;;;;;4422889;32;20107;-60
2023/01/29 02:47:15;;;;;;;0.52;0.52;;;0.80;99.90;;;;;;4424584;32;20073;-60
2023/01/29 02:49:56;;;;;;;1.75;0.90;;;0.70;99.90;;;;;;4407548;32;20517;-62
2023/01/29 02:52:27;;;;;;;0.47;0.47;;;0.80;99.90;;;;;;4422858;32;20069;-59
2023/01/29 02:55:03;;;;;;;0.52;0.52;;;0.80;99.90;;;;;;4422096;32;20119;-60
2023/01/29 02:57:34;;;;;;;0.40;0.40;;;0.80;99.90;;;;;;4423804;32;20434;-62
2023/01/29 03:00:09;;;;;;;0.60;0.60;;;0.80;99.90;;;;;;4406703;32;20081;-59
2023/01/29 03:02:40;;;;;;;0.60;0.60;;;0.80;99.90;;;;;;4422811;32;20523;-59
2023/01/29 03:05:14;;;;;;;1.83;0.77;;;0.90;99.90;;;;;;4422245;32;20512;-60
2023/01/29 03:07:46;;;;;;;0.57;0.57;;;0.90;99.90;;;;;;4408339;32;20527;-60
2023/01/29 03:10:20;;;;;;;0.40;0.40;;;0.90;99.90;;;;;;4421625;32;20520;-61
2023/01/29 03:12:54;;;;;;;0.50;0.50;;;0.90;99.90;;;;;;4421306;32;20458;-60
2023/01/29 03:15:25;;;;;;;1.00;0.88;;;0.80;99.90;;;;;;4423740;32;20069;-60
2023/01/29 03:18:00;;;;;;;0.60;0.60;;;0.70;99.90;;;;;;4422149;32;20065;-59
2023/01/29 03:20:32;;;;;;;0.50;0.50;;;0.70;99.90;;;;;;4408678;32;20539;-61
2023/01/29 03:23:08;;;;;;;0.45;0.45;;;0.80;99.90;;;;;;4418326;32;20093;-61
2023/01/29 03:32:10;;;;;;;0.47;0.47;;;0.80;99.90;;;;;;4409605;32;20086;-61
2023/01/29 03:34:05;;;;;;;0.50;0.50;;;0.80;99.90;;;;;;4412374;32;21246;-61
2023/01/29 03:36:54;;;;;;;0.43;0.43;;;0.80;99.90;;;;;;4423356;32;20097;-60
2023/01/29 03:39:20;;;;;;;0.90;0.90;;;0.70;99.90;;;;;;4411452;32;20069;-60
2023/01/29 03:41:56;;;;;;;3.08;1.02;;;0.70;99.90;;;;;;4409388;32;20488;-60
2023/01/29 03:44:40;;;;;;;0.50;0.50;;;0.80;99.90;;;;;;4398767;32;20548;-60
2023/01/29 03:47:16;;;;;;;0.50;0.50;;;0.80;99.90;;;;;;4411763;32;20157;-61
2023/01/29 03:50:04;;;;;;;0.40;0.40;;;0.80;99.90;;;;;;4410198;32;20081;-58
2023/01/29 03:52:47;;;;;;;0.50;0.50;;;0.80;99.90;;;;;;4423478;32;20150;-59
2023/01/29 03:55:19;;;;;;;0.50;0.50;;;0.80;99.90;;;;;;4424625;32;20442;-59
2023/01/29 03:57:57;;;;;;;1.00;0.98;;;0.80;99.90;;;;;;4424791;32;20111;-59
2023/01/29 04:00:28;;;;;;;1.17;0.50;;;0.80;99.90;;;;;;4425160;32;20054;-61
2023/01/29 04:03:32;;;;;;;0.40;0.40;;;0.70;99.90;;;;;;4409982;32;20100;-61
2023/01/29 04:06:24;;;;;;;0.50;0.50;;;0.70;99.90;;;;;;4415677;32;20491;-61
2023/01/29 04:08:57;;;;;;;0.40;0.40;;;0.80;99.90;;;;;;4410258;32;20122;-61
2023/01/29 04:11:24;;;;;;;1.12;1.02;;;0.70;99.90;;;;;;4410566;32;20516;-62
2023/01/29 04:13:51;;;;;;;0.82;0.82;;;0.80;99.90;;;;;;4411180;32;20140;-62
2023/01/29 04:16:26;;;;;;;0.40;0.40;;;0.80;99.90;;;;;;4411787;32;20077;-61
2023/01/29 04:18:53;;;;;;;0.50;0.50;;;0.80;99.90;;;;;;4398063;32;20097;-61
2023/01/29 04:21:19;;;;;;;0.45;0.45;;;0.80;99.90;;;;;;4410702;32;20595;-59
2023/01/29 04:23:44;;;;;;;0.40;0.40;;;0.80;99.90;;;;;;4409330;32;20145;-62
2023/01/29 04:26:34;;;;;;;0.60;0.60;;;0.80;99.90;;;;;;4411442;32;20069;-62
2023/01/29 04:29:39;;;;;;;5.07;1.25;;;0.90;99.90;;;;;;4411498;32;20167;-62
2023/01/29 04:32:14;;;;;;;0.57;0.57;;;0.90;99.90;;;;;;4413216;32;20082;-63
2023/01/29 04:35:13;;;;;;;11.45;3.40;;;0.90;99.90;;;;;;4410682;32;20474;-61
2023/01/29 04:37:51;;;;;;;0.50;0.50;;;0.90;99.90;;;;;;4413159;32;20098;-62
2023/01/29 04:40:56;;;;;;;0.60;0.60;;;0.90;99.90;;;;;;4424379;32;20516;-61
2023/01/29 04:43:29;;;;;;;0.40;0.40;;;0.90;99.90;;;;;;4411133;32;20097;-62
2023/01/29 04:46:03;;;;;;;0.40;0.40;;;0.80;99.90;;;;;;4425967;32;20085;-62
2023/01/29 04:48:43;;;;;;;0.50;0.50;;;0.80;99.90;;;;;;4423697;32;20102;-61
2023/01/29 04:51:28;;;;;;;0.60;0.60;;;0.70;99.90;;;;;;4425469;32;20113;-61
2023/01/29 04:54:15;;;;;;;0.60;0.60;;;0.70;99.90;;;;;;4423638;32;20578;-59
2023/01/29 04:56:57;;;;;;;0.50;0.50;;;0.70;99.90;;;;;;4425179;32;20105;-62
2023/01/29 04:59:32;;;;;;;0.50;0.50;;;0.70;99.90;;;;;;4407869;32;20089;-58
2023/01/29 05:02:01;;;;;;;0.60;0.60;;;0.80;99.90;;;;;;4423621;32;20093;-59
2023/01/29 05:04:28;;;;;;;0.98;0.98;;;0.80;99.90;;;;;;4410654;32;20093;-59
2023/01/29 05:06:54;;;;;;;0.40;0.40;;;0.80;99.90;;;;;;4425781;32;20074;-60
2023/01/29 05:09:21;;;;;;;0.68;0.68;;;0.90;99.90;;;;;;4408973;32;20150;-60
2023/01/29 05:11:48;;;;;;;0.50;0.50;;;0.90;99.90;;;;;;4410540;32;20085;-59
2023/01/29 05:14:17;;;;;;;0.40;0.40;;;0.90;99.90;;;;;;4424437;32;20415;-59
2023/01/29 05:16:48;;;;;;;0.70;0.70;;;0.90;99.90;;;;;;4410263;32;20090;-60
2023/01/29 05:19:15;;;;;;;0.40;0.40;;;0.90;99.90;;;;;;4423957;32;20572;-59
2023/01/29 05:21:44;;;;;;;0.40;0.40;;;0.80;99.90;;;;;;4424369;32;20658;-60
2023/01/29 05:24:18;;;;;;;0.85;0.68;;;0.80;99.90;;;;;;4409026;32;20089;-61
2023/01/29 05:28:17;;;;;;;0.55;0.55;;;0.80;99.90;;;;;;4410157;32;20538;-61
2023/01/29 05:29:32;;;;;;;0.50;0.50;;;0.90;99.90;;;;;;4399351;32;20179;-60
2023/01/29 05:31:57;;;;;;;4.95;1.35;;;0.90;99.90;;;;;;4424598;32;20493;-62
2023/01/29 05:34:23;;;;;;;0.57;0.57;;;0.90;99.90;;;;;;4424286;32;20088;-62
2023/01/29 05:36:49;;;;;;;0.40;0.40;;;0.90;99.90;;;;;;4422704;32;20077;-61
2023/01/29 05:39:15;;;;;;;0.45;0.45;;;0.90;99.90;;;;;;4410679;32;20066;-61
2023/01/29 05:41:40;;;;;;;0.57;0.57;;;0.80;99.90;;;;;;4409035;32;20140;-61
2023/01/29 05:44:06;;;;;;;0.65;0.65;;;0.80;99.90;;;;;;4410269;32;20101;-61
2023/01/29 05:46:31;;;;;;;0.45;0.45;;;0.80;99.90;;;;;;4424283;32;20119;-61
2023/01/29 05:48:58;;;;;;;0.50;0.50;;;0.70;99.90;;;;;;4424551;32;20093;-62
2023/01/29 05:51:23;;;;;;;0.60;0.60;;;0.70;99.90;;;;;;4424078;32;20061;-59
2023/01/29 05:53:49;;;;;;;0.60;0.60;;;0.70;99.90;;;;;;4422892;32;20160;-62
2023/01/29 05:56:14;;;;;;;0.50;0.50;;;0.80;99.90;;;;;;4424088;32;20054;-61
2023/01/29 05:58:39;;;;;;;0.57;0.57;;;0.70;99.90;;;;;;4423986;32;20574;-61
2023/01/29 06:01:23;;;;;;;0.55;0.55;;;0.80;99.90;;;;;;4424493;32;20143;-62
2023/01/29 06:03:49;;;;;;;0.50;0.50;;;0.80;99.90;;;;;;4410034;32;20096;-61
2023/01/29 06:06:14;;;;;;;4.50;2.15;;;0.80;99.90;;;;;;4424764;32;20120;-62
2023/01/29 06:08:40;;;;;;;0.40;0.40;;;0.80;99.90;;;;;;4408486;32;20062;-62
2023/01/29 06:11:07;;;;;;;0.50;0.50;;;0.80;99.90;;;;;;4411316;32;20073;-62
2023/01/29 06:13:33;;;;;;;0.50;0.50;;;0.90;99.90;;;;;;4410257;32;20065;-61
2023/01/29 06:15:59;;;;;;;0.52;0.52;;;0.90;99.90;;;;;;4423733;32;20128;-61
2023/01/29 06:18:24;;;;;;;1.92;1.40;;;0.90;99.90;;;;;;4424796;32;20085;-60
2023/01/29 06:20:50;;;;;;;1.05;1.05;;;0.90;99.90;;;;;;4425179;32;20544;-61
2023/01/29 06:23:15;;;;;;;0.88;0.88;;;0.90;99.90;;;;;;4420315;32;20101;-61
2023/01/29 06:25:41;;;;;;;0.40;0.40;;;1.00;99.90;;;;;;4422948;32;20062;-60
2023/01/29 06:28:06;;;;;;;0.85;0.85;;;1.00;99.90;;;;;;4423372;32;20130;-61
2023/01/29 06:30:32;;;;;;;0.60;0.60;;;1.00;99.90;;;;;;4423525;32;20065;-61
2023/01/29 06:32:58;;;;;;;0.60;0.60;;;1.00;99.90;;;;;;4421954;32;20105;-61
2023/01/29 06:35:24;;;;;;;0.40;0.40;;;1.10;99.90;;;;;;4423214;32;20168;-61
2023/01/29 06:37:49;;;;;;;1.23;1.10;;;1.10;99.90;;;;;;4410037;32;20088;-61
2023/01/29 06:40:15;;;;;;;0.55;0.55;;;1.00;99.90;;;;;;4422679;32;20077;-62
2023/01/29 06:42:40;;;;;;;1.45;0.88;;;1.00;99.90;;;;;;4424463;32;20575;-60
2023/01/29 06:45:06;;;;;;;0.80;0.80;;;1.10;99.90;;;;;;4424210;32;20522;-60
2023/01/29 06:47:32;;;;;;;1.05;0.95;;;1.10;99.90;;;;;;4423081;32;20085;-62
2023/01/29 06:49:57;;;;;;;1.05;0.98;;;1.10;99.90;;;;;;4422895;32;20069;-61
2023/01/29 06:52:27;;;;;;;1.00;1.00;;;1.10;99.90;;;;;;4422605;32;20086;-60
2023/01/29 06:54:53;;;;;;;1.03;1.03;;;1.10;99.90;;;;;;4423860;32;20089;-62
2023/01/29 06:57:18;;;;;;;0.40;0.40;;;1.10;99.90;;;;;;4424914;32;20196;-61
2023/01/29 06:59:44;;;;;;;0.57;0.57;;;1.10;99.90;;;;;;4423129;32;20461;-61
2023/01/29 07:02:09;;;;;;;1.23;1.12;;;1.10;99.90;;;;;;4422838;32;20080;-61
2023/01/29 07:04:36;;;;;;;0.70;0.70;;;1.20;99.90;;;;;;4423443;32;20077;-61
2023/01/29 07:07:02;;;;;;;0.52;0.52;;;1.20;99.90;;;;;;4424121;32;20215;-60
2023/01/29 07:09:27;;;;;;;0.50;0.50;;;1.20;99.90;;;;;;4425157;32;20612;-62
2023/01/29 07:11:53;;;;;;;0.88;0.88;;;1.20;99.90;;;;;;4426961;32;20163;-61
2023/01/29 07:14:18;;;;;;;0.43;0.43;;;1.20;99.90;;;;;;4425940;32;20528;-61
2023/01/29 07:16:43;;;;;;;0.60;0.60;;;1.30;99.90;;;;;;4426287;32;20131;-60
2023/01/29 07:19:09;;;;;;;0.50;0.50;;;1.30;99.90;;;;;;4411590;32;20066;-60
2023/01/29 07:21:35;;;;;;;13.88;2.15;;;1.20;99.90;;;;;;4425184;32;20101;-61
2023/01/29 07:24:01;;;;;;;0.40;0.40;;;1.20;99.90;;;;;;4425977;32;20062;-61
2023/01/29 07:26:26;;;;;;;3.62;0.98;;;1.20;99.90;;;;;;4427071;32;20093;-61
2023/01/29 07:28:52;;;;;;;1.73;1.23;;;1.20;99.90;;;;;;4425511;32;20140;-60
2023/01/29 07:31:17;;;;;;;0.95;0.95;;;1.30;99.90;;;;;;4425169;32;20106;-61
2023/01/29 07:33:43;;;;;;;1.05;1.00;;;1.20;99.90;;;;;;4424757;32;20057;-61
2023/01/29 07:36:10;;;;;;;0.40;0.40;;;1.20;99.90;;;;;;4424489;32;20065;-62
2023/01/29 07:38:35;;;;;;;0.57;0.57;;;1.20;99.90;;;;;;4410990;32;20521;-61
2023/01/29 07:41:01;;;;;;;1.75;1.33;;;1.20;99.90;;;;;;4426464;32;20123;-60
2023/01/29 07:43:26;;;;;;;0.77;0.77;;;1.20;99.90;;;;;;4424125;32;20077;-61
2023/01/29 07:45:51;;;;;;;0.57;0.57;;;1.20;99.90;;;;;;4427651;32;20073;-60
2023/01/29 07:48:17;;;;;;;1.00;1.00;;;1.20;99.90;;;;;;4424666;32;20077;-61
2023/01/29 07:50:43;;;;;;;0.73;0.73;;;1.30;99.90;;;;;;4411995;32;20413;-61
2023/01/29 07:53:13;;;;;;;0.80;0.80;;;1.30;99.90;;;;;;4411123;32;20057;-61
2023/01/29 07:55:39;;;;;;;0.55;0.55;;;1.30;99.90;;;;;;4411536;32;20069;-61
2023/01/29 07:58:05;;;;;;;1.27;1.17;;;1.30;99.90;;;;;;4412004;32;20073;-60
2023/01/29 08:00:31;;;;;;;0.40;0.40;;;1.20;99.90;;;;;;4424965;32;20081;-60
2023/01/29 08:03:15;;;;;;;0.60;0.60;;;1.20;99.90;;;;;;4410820;32;20482;-60
2023/01/29 08:05:41;;;;;;;0.60;0.60;;;1.30;99.90;;;;;;4411687;32;20084;-59
2023/01/29 08:08:07;;;;;;;2.50;0.90;;;1.30;99.90;;;;;;4424835;32;20166;-61
2023/01/29 08:10:34;;;;;;;0.88;0.88;;;1.30;99.90;;;;;;4423802;32;20173;-61
2023/01/29 08:13:01;;;;;;;1.45;1.35;;;1.30;99.90;;;;;;4410954;32;20085;-62
2023/01/29 08:15:27;;;;;;;0.62;0.62;;;1.30;99.90;;;;;;4410856;32;20413;-62
2023/01/29 08:17:52;;;;;;;0.65;0.65;;;1.30;99.90;;;;;;4425145;32;20081;-59
2023/01/29 08:20:19;;;;;;;0.50;0.50;;;1.30;99.90;;;;;;4411023;32;20089;-61
2023/01/29 08:22:44;;;;;;;2.22;1.42;;;1.30;99.90;;;;;;4408655;32;20476;-60
2023/01/29 08:25:10;;;;;;;0.57;0.57;;;1.30;99.90;;;;;;4421074;32;20097;-59
2023/01/29 08:27:35;;;;;;;0.60;0.60;;;1.30;99.90;;;;;;4408004;32;20559;-59
2023/01/29 08:30:01;;;;;;;0.50;0.50;;;1.30;99.90;;;;;;4424652;32;20081;-60
2023/01/29 08:32:27;;;;;;;0.90;0.90;;;1.30;99.90;;;;;;4425801;32;20074;-59
2023/01/29 08:34:52;;;;;;;0.40;0.40;;;1.30;99.90;;;;;;4424604;32;20097;-60
2023/01/29 08:37:17;;;;;;;0.73;0.73;;;1.30;99.90;;;;;;4423492;32;20066;-60
2023/01/29 08:39:43;;;;;;;0.88;0.88;;;1.40;99.90;;;;;;4425741;32;20120;-59
2023/01/29 08:42:08;;;;;;;0.50;0.50;;;1.40;99.90;;;;;;4423118;32;20336;-58
2023/01/29 08:44:34;;;;;;;0.60;0.60;;;1.40;99.90;;;;;;4422994;32;20065;-60
2023/01/29 08:47:00;;;;;;;19.85;2.58;;;1.40;99.90;;;;;;4422022;32;20094;-60
2023/01/29 08:49:25;;;;;;;0.93;0.93;;;1.40;99.90;;;;;;4406765;32;20081;-60
2023/01/29 08:51:51;;;;;;;0.62;0.62;;;1.40;99.90;;;;;;4426133;32;20062;-60
2023/01/29 08:54:16;;;;;;;2.00;1.20;;;1.40;99.90;;;;;;4425398;32;20135;-61
2023/01/29 08:56:42;;;;;;;0.60;0.60;;;1.40;99.90;;;;;;4421988;32;20082;-60
2023/01/29 08:59:09;;;;;;;1.17;1.08;;;1.40;99.90;;;;;;4409466;32;20092;-59
2023/01/29 09:01:34;;;;;;;1.45;1.20;;;1.40;99.90;;;;;;4410105;32;20139;-59
2023/01/29 09:04:00;;;;;;;0.62;0.60;;;1.40;99.90;;;;;;4424694;32;20092;-60
2023/01/29 09:06:25;;;;;;;0.65;0.65;;;1.50;99.90;;;;;;4425338;32;20077;-60
2023/01/29 09:08:51;;;;;;;0.60;0.60;;;1.50;99.90;;;;;;4423724;32;20077;-58
2023/01/29 09:11:16;;;;;;;0.52;0.52;;;1.60;99.90;;;;;;4425397;32;20089;-61
2023/01/29 09:13:42;;;;;;;0.90;0.90;;;1.60;99.90;;;;;;4423391;32;20065;-60
2023/01/29 09:16:08;;;;;;;0.50;0.50;;;1.60;99.90;;;;;;4425918;32;20058;-60
2023/01/29 09:18:34;;;;;;;1.25;0.85;;;1.60;99.90;;;;;;4396390;32;20214;-60
2023/01/29 09:21:01;;;;;;;0.85;0.85;;;1.60;99.90;;;;;;4411802;32;20089;-60
2023/01/29 09:23:27;;;;;;;0.80;0.80;;;1.60;99.90;;;;;;4423289;32;20128;-58
2023/01/29 09:25:53;;;;;;;0.50;0.50;;;1.70;99.90;;;;;;4424209;32;20104;-59
2023/01/29 09:28:18;;;;;;;1.58;0.98;;;1.70;99.90;;;;;;4424288;32;20135;-60
2023/01/29 09:30:44;;;;;;;1.17;1.08;;;1.70;99.90;;;;;;4422920;32;20406;-60
2023/01/29 09:33:09;;;;;;;0.73;0.73;;;1.70;99.90;;;;;;4424055;32;20089;-60
2023/01/29 09:35:35;;;;;;;2.87;1.52;;;1.70;99.90;;;;;;4424307;32;20162;-60
2023/01/29 09:38:01;;;;;;;0.40;0.40;;;1.80;99.90;;;;;;4411272;32;20127;-61
2023/01/29 09:40:31;;;;;;;0.30;0.30;;;1.80;99.90;;;;;;4426515;32;20081;-59
2023/01/29 09:43:03;;;;;;;0.60;0.60;;;1.80;99.90;;;;;;4410653;32;20092;-62
2023/01/29 09:45:30;;;;;;;0.60;0.60;;;1.80;99.90;;;;;;4423025;32;20109;-62
2023/01/29 09:47:59;;;;;;;0.50;0.50;;;1.90;99.90;;;;;;4411232;32;20089;-61
2023/01/29 09:50:32;;;;;;;0.83;0.83;;;1.90;99.90;;;;;;4426091;32;20713;-61
2023/01/29 09:53:26;;;;;;;2.42;1.02;;;2.00;99.90;;;;;;4424348;32;20095;-60
2023/01/29 09:56:14;;;;;;;0.40;0.40;;;2.00;99.90;;;;;;4413138;32;20844;-60
2023/01/29 09:58:42;;;;;;;0.30;0.30;;;2.10;99.90;;;;;;4412133;32;20560;-62
2023/01/29 10:01:16;;;;;;;1.33;1.23;;;2.10;99.90;;;;;;4422932;32;20097;-61
2023/01/29 10:03:53;;;;;;;0.90;0.90;;;2.20;99.90;;;;;;4425083;32;20109;-60
2023/01/29 10:06:46;;;;;;;1.83;1.62;;;2.20;99.90;;;;;;4424930;32;20148;-60
2023/01/29 10:09:32;;;;;;;0.50;0.50;;;2.20;99.90;;;;;;4412342;32;20196;-60
2023/01/29 10:12:12;;;;;;;1.75;1.05;;;2.30;99.90;;;;;;4425405;32;20394;-60
2023/01/29 10:15:17;;;;;;;0.47;0.47;;;2.40;99.90;;;;;;4423598;32;20090;-60
2023/01/29 10:17:57;;;;;;;0.57;0.57;;;2.50;99.90;;;;;;4415191;32;20101;-61
2023/01/29 10:20:42;;;;;;;2.50;0.75;;;2.50;99.90;;;;;;4424538;32;20081;-60
2023/01/29 10:23:46;;;;;;;0.40;0.40;;;2.50;99.90;;;;;;4423074;32;20110;-61
2023/01/29 10:26:12;;;;;;;1.25;0.73;;;2.50;99.90;;;;;;4415377;32;20108;-61
2023/01/29 10:28:49;;;;;;;2.30;1.02;;;2.60;99.90;;;;;;4421960;32;20518;-61
2023/01/29 10:31:23;;;;;;;0.73;0.73;;;2.60;99.90;;;;;;4410186;32;20078;-61
2023/01/29 10:33:53;;;;;;;1.50;0.95;;;2.70;99.90;;;;;;4422500;32;20078;-60
2023/01/29 10:36:27;;;;;;;0.40;0.40;;;2.70;99.90;;;;;;4423296;32;20634;-60
2023/01/29 10:38:54;;;;;;;1.02;1.02;;;2.80;99.90;;;;;;4423907;32;20430;-59
2023/01/29 10:41:22;;;;;;;0.43;0.43;;;2.80;99.90;;;;;;4426471;32;20081;-60
2023/01/29 10:44:21;;;;;;;4.28;1.45;;;2.80;99.90;;;;;;4426481;32;20081;-60
2023/01/29 10:47:06;;;;;;;0.40;0.40;;;2.90;99.90;;;;;;4415337;32;20717;-60
2023/01/29 10:50:03;;;;;;;0.45;0.45;;;3.10;99.90;;;;;;4427339;32;20092;-61
2023/01/29 10:52:41;;;;;;;2.80;1.55;;;3.20;99.90;;;;;;4403045;32;20096;-61
2023/01/29 10:55:37;;;;;;;0.60;0.60;;;3.30;99.90;;;;;;4413086;32;20097;-60
2023/01/29 10:58:14;;;;;;;0.50;0.50;;;3.30;99.90;;;;;;4416360;32;20430;-61
2023/01/29 11:00:41;;;;;;;3.10;1.30;;;3.40;99.90;;;;;;4413812;32;20195;-60
2023/01/29 11:03:15;;;;;;;0.50;0.50;;;3.40;99.90;;;;;;4410575;32;20065;-61
2023/01/29 11:05:54;;;;;;;0.45;0.45;;;3.40;99.90;;;;;;4411288;32;20093;-61
2023/01/29 11:08:27;;;;;;;0.40;0.40;;;3.50;99.90;;;;;;4398988;32;20077;-60
2023/01/29 11:11:11;;;;;;;0.43;0.43;;;3.60;99.90;;;;;;4413029;32;20072;-60
2023/01/29 11:14:07;;;;;;;0.60;0.60;;;3.50;99.90;;;;;;4425938;32;20418;-61
2023/01/29 11:16:44;;;;;;;0.47;0.47;;;3.60;99.90;;;;;;4413462;32;20074;-61
2023/01/29 11:19:10;;;;;;;0.43;0.43;;;3.60;99.90;;;;;;4426304;32;20062;-60
2023/01/29 11:21:56;;;;;;;0.62;0.62;;;3.60;99.90;;;;;;4425888;32;20097;-61
2023/01/29 11:24:22;;;;;;;0.40;0.40;;;3.60;99.90;;;;;;4409240;32;20486;-60
2023/01/29 11:26:49;;;;;;;0.68;0.68;;;3.60;99.90;;;;;;4427049;32;20179;-61
2023/01/29 11:29:45;;;;;;;0.40;0.40;;;3.60;99.90;;;;;;4425543;32;20093;-59
2023/01/29 11:32:23;;;;;;;2.70;0.95;;;3.60;99.90;;;;;;4413684;32;20086;-60
2023/01/29 11:35:14;;;;;;;1.52;1.15;;;3.60;99.90;;;;;;4425816;32;20553;-61
2023/01/29 11:37:42;;;;;;;1.33;1.15;;;3.70;99.90;;;;;;4423711;32;20065;-60
2023/01/29 11:40:34;;;;;;;1.73;0.88;;;3.70;99.90;;;;;;4423128;32;20085;-61
2023/01/29 11:43:29;;;;;;;0.98;0.57;;;3.70;99.90;;;;;;4421785;32;184501;-60
2023/01/29 11:46:01;;;;;;;0.50;0.50;;;3.60;99.90;;;;;;4415361;32;20068;-61
2023/01/29 11:48:39;;;;;;;0.77;0.77;;;3.60;99.90;;;;;;4411785;32;20124;-60
2023/01/29 11:51:07;;;;;;;0.82;0.80;;;3.60;99.90;;;;;;4423239;32;20423;-60
2023/01/29 11:53:38;;;;;;;0.45;0.45;;;3.70;99.90;;;;;;4411260;32;20600;-60
2023/01/29 11:56:43;;;;;;;0.80;0.80;;;3.70;99.90;;;;;;4412402;32;20093;-60
2023/01/29 11:59:36;;;;;;;0.50;0.50;;;3.70;99.90;;;;;;4413103;32;20188;-60
2023/01/29 12:02:21;;;;;;;0.43;0.43;;;3.80;99.90;;;;;;4412939;32;20122;-60
2023/01/29 12:04:47;;;;;;;0.62;0.62;;;3.90;99.90;;;;;;4412122;32;20466;-60
2023/01/29 12:07:16;;;;;;;0.60;0.60;;;3.90;99.90;;;;;;4412668;32;20065;-60
2023/01/29 12:09:52;;;;;;;0.45;0.45;;;3.80;99.90;;;;;;4423543;32;20084;-60
2023/01/29 12:12:36;;;;;;;0.50;0.50;;;3.80;99.90;;;;;;4410743;32;20585;-61
2023/01/29 12:15:15;;;;;;;0.60;0.60;;;3.90;99.90;;;;;;4425577;32;20069;-60
2023/01/29 12:17:46;;;;;;;0.77;0.77;;;4.00;99.90;;;;;;4428544;32;20089;-61
2023/01/29 12:20:17;;;;;;;0.40;0.40;;;3.90;99.90;;;;;;4423294;32;20084;-59
2023/01/29 12:22:54;;;;;;;;;;;4.00;99.90;;;;;;4398375;32;20240;-60
2023/01/29 12:25:46;;;;;;;0.60;0.60;;;3.80;99.90;;;;;;4425110;32;19973;-60
2023/01/29 12:28:35;;;;;;;1.37;0.98;;;3.70;99.90;;;;;;4411288;32;20054;-62
2023/01/29 12:31:25;;;;;;;1.90;1.52;;;3.80;99.90;;;;;;4421177;32;20116;-59
2023/01/29 12:34:01;;;;;;;0.80;0.80;;;3.80;99.90;;;;;;4401765;32;20575;-59
2023/01/29 12:36:35;;;;;;;0.40;0.40;;;3.70;99.90;;;;;;4398267;32;20073;-60
2023/01/29 12:39:00;;;;;;;0.95;0.65;;;3.80;99.90;;;;;;4408830;32;20073;-62
2023/01/29 12:41:48;;;;;;;0.50;0.50;;;3.80;99.90;;;;;;4409137;32;20088;-60
2023/01/29 12:44:19;;;;;;;1.25;1.12;;;3.80;99.90;;;;;;4425035;32;20077;-61
2023/01/29 12:46:49;;;;;;;2.40;1.40;;;3.90;99.90;;;;;;4425294;32;20449;-59
2023/01/29 12:49:21;;;;;;;0.50;0.50;;;3.90;99.90;;;;;;4424541;32;20418;-60
2023/01/29 12:51:55;;;;;;;1.45;1.20;;;4.00;99.90;;;;;;4410591;32;20509;-59
2023/01/29 12:54:31;;;;;;;0.52;0.52;;;3.80;99.90;;;;;;4423808;32;20084;-60
2023/01/29 12:57:01;;;;;;;0.65;0.65;;;3.70;99.90;;;;;;4397203;32;20109;-58
2023/01/29 12:59:38;;;;;;;0.40;0.40;;;3.70;99.90;;;;;;4411328;32;20568;-60
2023/01/29 13:02:17;;;;;;;0.88;0.88;;;3.70;99.90;;;;;;4424384;32;20056;-61
2023/01/29 13:04:52;;;;;;;0.47;0.47;;;3.60;99.90;;;;;;4422403;32;20081;-60
2023/01/29 13:07:27;;;;;;;0.60;0.60;;;3.60;99.90;;;;;;4424922;32;20415;-62
2023/01/29 13:10:00;;;;;;;0.70;0.70;;;3.60;99.90;;;;;;4422679;32;20073;-61
2023/01/29 13:12:26;;;;;;;2.28;0.85;;;3.60;99.90;;;;;;4423435;32;20096;-59
2023/01/29 13:14:57;;;;;;;0.62;0.62;;;3.70;99.90;;;;;;4424908;32;20139;-61
2023/01/29 13:17:35;;;;;;;0.40;0.40;;;3.70;99.90;;;;;;4411586;32;20085;-59
2023/01/29 13:20:11;;;;;;;1.85;0.70;;;3.80;99.90;;;;;;4409815;32;20089;-59
2023/01/29 13:22:39;;;;;;;0.52;0.52;;;3.80;99.90;;;;;;4420331;32;20164;-60
2023/01/29 13:25:11;;;;;;;0.75;0.70;;;3.80;99.90;;;;;;4409324;32;20084;-59
2023/01/29 13:27:37;;;;;;;0.60;0.60;;;3.70;99.90;;;;;;4424972;32;20540;-60
2023/01/29 13:30:04;;;;;;;0.65;0.65;;;3.70;99.90;;;;;;4409028;32;20551;-60
2023/01/29 13:32:33;;;;;;;0.50;0.50;;;3.70;99.90;;;;;;4410825;32;20069;-62
2023/01/29 13:35:03;;;;;;;0.50;0.50;;;3.60;99.90;;;;;;4409806;32;20101;-60
2023/01/29 13:37:35;;;;;;;0.80;0.80;;;3.50;99.90;;;;;;4409396;32;20073;-62